createdAt,value
2022-11-17T00:00:46.025Z,6.84
2022-11-17T00:01:48.670Z,6.83
2022-11-17T00:02:50.778Z,6.82
2022-11-17T00:03:52.763Z,6.81
2022-11-17T00:04:54.178Z,6.81
2022-11-17T00:05:55.603Z,6.80
2022-11-17T00:06:58.326Z,6.81
2022-11-17T00:08:00.102Z,6.82
2022-11-17T00:09:01.560Z,6.86
2022-11-17T00:10:03.632Z,6.88
2022-11-17T00:11:05.470Z,6.89
2022-11-17T00:12:31.374Z,6.92
2022-11-17T00:13:52.843Z,6.91
2022-11-17T00:14:54.268Z,6.97
2022-11-17T00:15:55.676Z,6.96
2022-11-17T00:16:57.144Z,7.00
2022-11-17T00:18:16.963Z,7.02
2022-11-17T00:19:36.969Z,7.04
2022-11-17T00:20:57.997Z,7.07
2022-11-17T00:21:59.404Z,7.08
2022-11-17T00:23:01.038Z,7.11
2022-11-17T00:24:02.983Z,7.14
2022-11-17T00:25:04.705Z,7.16
2022-11-17T00:26:06.098Z,7.17
2022-11-17T00:27:07.658Z,7.18
2022-11-17T00:28:09.398Z,7.18
2022-11-17T00:29:10.811Z,7.16
2022-11-17T00:30:32.730Z,7.16
2022-11-17T00:31:53.307Z,7.19
2022-11-17T00:33:13.475Z,7.24
2022-11-17T00:34:17.910Z,7.22
2022-11-17T00:35:19.351Z,7.23
2022-11-17T00:36:25.446Z,7.23
2022-11-17T00:37:28.847Z,7.23
2022-11-17T00:38:30.578Z,7.24
2022-11-17T00:39:32.534Z,7.25
2022-11-17T00:40:33.955Z,7.28
2022-11-17T00:41:35.771Z,7.29
2022-11-17T00:42:37.203Z,7.32
2022-11-17T00:43:38.690Z,7.35
2022-11-17T00:44:40.162Z,7.40
2022-11-17T00:45:41.970Z,7.44
2022-11-17T00:46:43.846Z,7.43
2022-11-17T00:47:45.593Z,7.33
2022-11-17T00:48:47.199Z,7.33
2022-11-17T00:49:48.661Z,7.32
2022-11-17T00:50:50.108Z,7.29
2022-11-17T00:51:52.603Z,7.29
2022-11-17T00:52:54.375Z,7.28
2022-11-17T00:53:56.018Z,7.27
2022-11-17T00:54:57.449Z,7.23
2022-11-17T00:55:58.921Z,7.17
2022-11-17T00:57:00.361Z,7.20
2022-11-17T00:58:02.114Z,7.24
2022-11-17T00:59:03.642Z,7.25
2022-11-17T01:00:05.629Z,7.28
2022-11-17T01:01:07.098Z,7.31
2022-11-17T01:02:08.585Z,7.30
2022-11-17T01:03:10.373Z,7.27
2022-11-17T01:04:13.940Z,7.25
2022-11-17T01:05:15.394Z,7.28
2022-11-17T01:06:20.527Z,7.33
2022-11-17T01:07:22.846Z,7.36
2022-11-17T01:08:24.705Z,7.35
2022-11-17T01:09:26.145Z,7.38
2022-11-17T01:10:27.592Z,7.41
2022-11-17T01:11:29.592Z,7.37
2022-11-17T01:12:31.040Z,7.37
2022-11-17T01:13:33.290Z,7.38
2022-11-17T01:14:35.118Z,7.38
2022-11-17T01:15:36.595Z,7.41
2022-11-17T01:16:38.073Z,7.36
2022-11-17T01:17:39.540Z,7.35
2022-11-17T01:18:42.141Z,7.33
2022-11-17T01:19:43.571Z,7.34
2022-11-17T01:20:45.066Z,7.32
2022-11-17T01:21:47.041Z,7.32
2022-11-17T01:22:48.782Z,7.31
2022-11-17T01:23:52.718Z,7.32
2022-11-17T01:24:54.129Z,7.34
2022-11-17T01:26:01.676Z,7.35
2022-11-17T01:27:03.190Z,7.37
2022-11-17T01:28:04.991Z,7.38
2022-11-17T01:29:07.682Z,7.39
2022-11-17T01:30:09.902Z,7.42
2022-11-17T01:31:14.539Z,7.43
2022-11-17T01:32:16.330Z,7.46
2022-11-17T01:33:17.753Z,7.47
2022-11-17T01:34:19.659Z,7.49
2022-11-17T01:35:21.098Z,7.51
2022-11-17T01:36:24.273Z,7.54
2022-11-17T01:37:27.223Z,7.58
2022-11-17T01:38:28.889Z,7.57
2022-11-17T01:39:31.550Z,7.61
2022-11-17T01:40:32.957Z,7.60
2022-11-17T01:41:34.331Z,7.62
2022-11-17T01:42:36.061Z,7.63
2022-11-17T01:43:46.333Z,7.62
2022-11-17T01:45:01.693Z,7.62
2022-11-17T01:46:03.477Z,7.60
2022-11-17T01:47:13.202Z,7.59
2022-11-17T01:48:15.635Z,7.61
2022-11-17T01:49:20.091Z,7.65
2022-11-17T01:50:36.050Z,7.70
2022-11-17T01:51:43.357Z,7.76
2022-11-17T01:52:46.577Z,7.74
2022-11-17T01:53:50.320Z,7.68
2022-11-17T01:54:54.087Z,7.70
2022-11-17T01:56:01.793Z,7.73
2022-11-17T01:57:08.572Z,7.75
2022-11-17T01:58:19.587Z,7.78
2022-11-17T01:59:23.340Z,7.77
2022-11-17T02:00:24.885Z,7.75
2022-11-17T02:01:26.391Z,7.72
2022-11-17T02:02:28.536Z,7.75
2022-11-17T02:03:34.849Z,7.74
2022-11-17T02:05:05.333Z,7.74
2022-11-17T02:06:11.614Z,7.76
2022-11-17T02:07:27.831Z,7.79
2022-11-17T02:08:32.390Z,7.73
2022-11-17T02:09:37.581Z,7.66
2022-11-17T02:10:39.626Z,7.66
2022-11-17T02:11:41.174Z,7.72
2022-11-17T02:12:44.119Z,7.67
2022-11-17T02:13:46.219Z,7.64
2022-11-17T02:14:49.425Z,7.66
2022-11-17T02:15:50.839Z,7.58
2022-11-17T02:16:52.273Z,7.61
2022-11-17T02:17:54.586Z,7.63
2022-11-17T02:18:56.219Z,7.63
2022-11-17T02:20:10.535Z,7.67
2022-11-17T02:21:33.815Z,7.63
2022-11-17T02:22:44.711Z,7.68
2022-11-17T02:24:04.279Z,7.70
2022-11-17T02:25:33.564Z,7.75
2022-11-17T02:26:37.879Z,7.74
2022-11-17T02:27:55.665Z,7.74
2022-11-17T02:29:48.366Z,7.68
2022-11-17T02:31:11.379Z,7.69
2022-11-17T02:32:24.223Z,7.72
2022-11-17T02:33:28.565Z,7.73
2022-11-17T02:34:34.380Z,7.74
2022-11-17T02:35:43.998Z,7.75
2022-11-17T02:36:59.132Z,7.77
2022-11-17T02:38:12.323Z,7.77
2022-11-17T02:39:21.441Z,7.75
2022-11-17T02:40:30.682Z,7.70
2022-11-17T02:41:38.244Z,7.66
2022-11-17T02:43:05.431Z,7.71
2022-11-17T02:44:14.317Z,7.72
2022-11-17T02:45:24.229Z,7.76
2022-11-17T02:46:28.657Z,7.74
2022-11-17T02:47:34.497Z,7.75
2022-11-17T02:48:59.059Z,7.76
2022-11-17T02:50:06.142Z,7.78
2022-11-17T02:51:14.274Z,7.80
2022-11-17T02:52:18.217Z,7.78
2022-11-17T02:53:20.928Z,7.80
2022-11-17T02:54:25.298Z,7.86
2022-11-17T02:55:27.763Z,7.86
2022-11-17T02:56:29.193Z,7.90
2022-11-17T02:57:33.444Z,7.90
2022-11-17T02:58:34.923Z,7.86
2022-11-17T02:59:45.176Z,7.85
2022-11-17T03:01:08.172Z,7.87
2022-11-17T03:02:19.927Z,7.89
2022-11-17T03:03:41.984Z,7.85
2022-11-17T03:05:02.444Z,7.89
2022-11-17T03:06:11.335Z,7.90
2022-11-17T03:07:31.611Z,7.93
2022-11-17T03:08:49.942Z,7.96
2022-11-17T03:10:03.790Z,7.99
2022-11-17T03:11:10.762Z,7.98
2022-11-17T03:12:34.486Z,7.94
2022-11-17T03:14:02.258Z,7.94
2022-11-17T03:15:12.717Z,7.94
2022-11-17T03:16:49.517Z,7.92
2022-11-17T03:18:10.105Z,7.88
2022-11-17T03:19:17.514Z,7.88
2022-11-17T03:20:24.650Z,7.90
2022-11-17T03:21:28.808Z,7.89
2022-11-17T03:22:47.335Z,7.85
2022-11-17T03:23:57.721Z,7.83
2022-11-17T03:25:03.078Z,7.84
2022-11-17T03:26:10.248Z,7.84
2022-11-17T03:27:17.283Z,7.85
2022-11-17T03:28:21.655Z,7.88
2022-11-17T03:29:27.259Z,7.93
2022-11-17T03:30:34.627Z,7.90
2022-11-17T03:31:41.526Z,7.87
2022-11-17T03:32:49.755Z,7.87
2022-11-17T03:33:52.904Z,7.85
2022-11-17T03:35:01.379Z,7.87
2022-11-17T03:36:10.086Z,7.85
2022-11-17T03:37:14.610Z,7.76
2022-11-17T03:38:18.535Z,7.74
2022-11-17T03:39:30.214Z,7.70
2022-11-17T03:40:33.258Z,7.76
2022-11-17T03:41:37.796Z,7.74
2022-11-17T03:42:44.583Z,7.71
2022-11-17T03:43:51.729Z,7.77
2022-11-17T03:44:57.095Z,7.83
2022-11-17T03:46:06.889Z,7.76
2022-11-17T03:47:12.328Z,7.81
2022-11-17T03:48:22.858Z,7.82
2022-11-17T03:49:45.746Z,7.79
2022-11-17T03:51:06.466Z,7.89
2022-11-17T03:52:08.380Z,7.95
2022-11-17T03:53:10.642Z,7.99
2022-11-17T03:54:14.397Z,8.02
2022-11-17T03:55:16.356Z,8.04
2022-11-17T03:56:50.899Z,8.07
2022-11-17T03:57:59.267Z,8.09
2022-11-17T03:59:06.586Z,8.08
2022-11-17T04:00:10.013Z,8.08
2022-11-17T04:01:13.590Z,8.14
2022-11-17T04:02:18.726Z,8.17
2022-11-17T04:03:23.681Z,8.17
2022-11-17T04:04:45.361Z,8.18
2022-11-17T04:05:46.865Z,8.20
2022-11-17T04:06:51.460Z,8.24
2022-11-17T04:07:53.334Z,8.26
2022-11-17T04:08:54.749Z,8.17
2022-11-17T04:09:56.152Z,8.18
2022-11-17T04:11:16.534Z,8.18
2022-11-17T04:12:36.674Z,8.18
2022-11-17T04:13:56.519Z,8.19
2022-11-17T04:15:16.168Z,8.20
2022-11-17T04:16:17.655Z,8.17
2022-11-17T04:17:19.394Z,8.15
2022-11-17T04:18:21.855Z,8.09
2022-11-17T04:19:23.275Z,8.11
2022-11-17T04:20:24.874Z,8.12
2022-11-17T04:21:26.573Z,8.11
2022-11-17T04:22:28.365Z,8.12
2022-11-17T04:23:29.787Z,8.09
2022-11-17T04:24:31.205Z,8.10
2022-11-17T04:25:58.579Z,8.14
2022-11-17T04:27:18.453Z,8.13
2022-11-17T04:28:38.519Z,8.14
2022-11-17T04:29:40.003Z,7.98
2022-11-17T04:30:41.406Z,7.94
2022-11-17T04:31:42.919Z,7.97
2022-11-17T04:32:44.453Z,7.99
2022-11-17T04:33:51.766Z,7.94
2022-11-17T04:34:53.207Z,7.96
2022-11-17T04:35:54.666Z,7.90
2022-11-17T04:36:56.483Z,7.84
2022-11-17T04:37:57.898Z,7.86
2022-11-17T04:39:00.113Z,7.86
2022-11-17T04:40:01.691Z,7.86
2022-11-17T04:41:24.354Z,7.87
2022-11-17T04:42:26.060Z,7.91
2022-11-17T04:43:27.537Z,7.93
2022-11-17T04:44:32.770Z,7.95
2022-11-17T04:45:34.762Z,7.94
2022-11-17T04:46:38.395Z,7.86
2022-11-17T04:47:39.821Z,7.83
2022-11-17T04:48:41.361Z,7.82
2022-11-17T04:49:42.803Z,7.83
2022-11-17T04:50:44.225Z,7.79
2022-11-17T04:51:46.205Z,7.77
2022-11-17T04:52:47.648Z,7.76
2022-11-17T04:53:49.788Z,7.79
2022-11-17T04:54:51.184Z,7.81
2022-11-17T04:55:52.598Z,7.84
2022-11-17T04:56:55.408Z,7.88
2022-11-17T04:57:56.853Z,7.93
2022-11-17T04:58:58.463Z,7.96
2022-11-17T05:00:00.003Z,7.99
2022-11-17T05:01:13.795Z,8.00
2022-11-17T05:02:15.327Z,7.98
2022-11-17T05:03:16.782Z,7.95
2022-11-17T05:04:39.165Z,7.98
2022-11-17T05:05:40.631Z,7.97
2022-11-17T05:06:44.473Z,7.98
2022-11-17T05:07:45.928Z,7.98
2022-11-17T05:08:48.026Z,8.00
2022-11-17T05:09:49.649Z,8.04
2022-11-17T05:11:09.911Z,8.07
2022-11-17T05:12:29.705Z,8.06
2022-11-17T05:13:31.150Z,7.98
2022-11-17T05:14:32.703Z,8.03
2022-11-17T05:15:52.706Z,8.06
2022-11-17T05:17:11.550Z,8.10
2022-11-17T05:18:13.408Z,8.10
2022-11-17T05:19:19.190Z,8.09
2022-11-17T05:20:20.616Z,8.09
2022-11-17T05:21:22.056Z,8.08
2022-11-17T05:22:42.270Z,8.02
2022-11-17T05:23:55.685Z,8.00
2022-11-17T05:24:57.237Z,7.94
2022-11-17T05:25:58.757Z,8.04
2022-11-17T05:27:00.186Z,8.02
2022-11-17T05:28:01.631Z,8.02
2022-11-17T05:29:05.612Z,7.96
2022-11-17T05:30:08.370Z,7.89
2022-11-17T05:31:10.648Z,7.86
2022-11-17T05:32:12.398Z,7.88
2022-11-17T05:33:13.855Z,7.77
2022-11-17T05:34:17.508Z,7.79
2022-11-17T05:35:18.944Z,7.81
2022-11-17T05:36:22.002Z,7.86
2022-11-17T05:37:23.779Z,7.84
2022-11-17T05:38:25.275Z,7.87
2022-11-17T05:39:26.710Z,7.90
2022-11-17T05:40:28.140Z,7.81
2022-11-17T05:41:29.841Z,7.78
2022-11-17T05:42:31.642Z,7.82
2022-11-17T05:43:33.766Z,7.86
2022-11-17T05:44:35.439Z,7.88
2022-11-17T05:45:36.863Z,7.92
2022-11-17T05:46:38.275Z,7.95
2022-11-17T05:47:40.035Z,7.99
2022-11-17T05:48:41.483Z,8.00
2022-11-17T05:49:43.079Z,7.96
2022-11-17T05:50:44.581Z,7.99
2022-11-17T05:51:51.298Z,7.97
2022-11-17T05:52:54.373Z,7.95
2022-11-17T05:53:55.771Z,7.94
2022-11-17T05:54:57.202Z,7.95
2022-11-17T05:56:37.718Z,7.87
2022-11-17T05:57:40.008Z,7.91
2022-11-17T05:58:45.754Z,7.91
2022-11-17T05:59:54.875Z,7.83
2022-11-17T06:00:57.622Z,7.83
2022-11-17T06:02:04.468Z,7.87
2022-11-17T06:03:20.592Z,7.79
2022-11-17T06:04:22.660Z,7.86
2022-11-17T06:05:25.481Z,7.87
2022-11-17T06:06:28.300Z,7.89
2022-11-17T06:07:30.085Z,7.88
2022-11-17T06:08:31.588Z,7.91
2022-11-17T06:09:35.728Z,7.93
2022-11-17T06:10:37.477Z,7.87
2022-11-17T06:11:38.953Z,7.89
2022-11-17T06:12:40.698Z,7.86
2022-11-17T06:13:42.148Z,7.90
2022-11-17T06:14:43.593Z,7.88
2022-11-17T06:15:45.126Z,7.92
2022-11-17T06:16:50.821Z,7.90
2022-11-17T06:18:00.636Z,7.95
2022-11-17T06:19:16.193Z,7.99
2022-11-17T06:20:30.742Z,8.02
2022-11-17T06:22:04.537Z,8.03
2022-11-17T06:22:58.901Z,8.04
2022-11-17T06:24:01.942Z,8.02
2022-11-17T06:25:05.542Z,8.03
2022-11-17T06:26:09.182Z,8.00
2022-11-17T06:27:14.244Z,8.05
2022-11-17T06:28:21.246Z,8.02
2022-11-17T06:29:22.788Z,7.99
2022-11-17T06:30:24.213Z,7.98
2022-11-17T06:31:30.271Z,7.95
2022-11-17T06:32:35.230Z,7.90
2022-11-17T06:33:37.712Z,7.85
2022-11-17T06:34:39.472Z,7.89
2022-11-17T06:35:42.972Z,7.93
2022-11-17T06:36:44.509Z,7.98
2022-11-17T06:37:46.353Z,8.01
2022-11-17T06:38:47.947Z,8.02
2022-11-17T06:39:49.466Z,8.05
2022-11-17T06:40:51.912Z,8.02
2022-11-17T06:41:53.309Z,8.06
2022-11-17T06:43:03.767Z,8.09
2022-11-17T06:44:05.220Z,8.07
2022-11-17T06:45:07.257Z,8.07
2022-11-17T06:46:08.700Z,8.06
2022-11-17T06:47:10.163Z,8.03
2022-11-17T06:48:14.119Z,8.05
2022-11-17T06:49:15.656Z,7.98
2022-11-17T06:50:17.193Z,7.97
2022-11-17T06:51:18.674Z,7.97
2022-11-17T06:52:20.454Z,8.01
2022-11-17T06:53:23.261Z,7.99
2022-11-17T06:54:24.747Z,7.96
2022-11-17T06:55:26.929Z,7.98
2022-11-17T06:56:28.610Z,7.97
2022-11-17T06:57:30.452Z,7.90
2022-11-17T06:58:32.663Z,7.91
2022-11-17T06:59:34.227Z,7.93
2022-11-17T07:00:36.717Z,7.93
2022-11-17T07:01:38.268Z,7.91
2022-11-17T07:02:40.062Z,7.94
2022-11-17T07:03:45.086Z,7.87
2022-11-17T07:04:46.524Z,7.87
2022-11-17T07:05:48.021Z,7.86
2022-11-17T07:06:49.529Z,7.86
2022-11-17T07:07:51.311Z,7.90
2022-11-17T07:08:52.825Z,7.82
2022-11-17T07:09:54.300Z,7.79
2022-11-17T07:10:56.144Z,7.81
2022-11-17T07:11:57.584Z,7.80
2022-11-17T07:12:59.746Z,7.77
2022-11-17T07:14:01.187Z,7.68
2022-11-17T07:15:02.702Z,7.61
2022-11-17T07:16:12.945Z,7.61
2022-11-17T07:17:14.719Z,7.67
2022-11-17T07:18:19.991Z,7.68
2022-11-17T07:19:21.453Z,7.75
2022-11-17T07:20:22.871Z,7.71
2022-11-17T07:21:24.310Z,7.70
2022-11-17T07:22:26.145Z,7.69
2022-11-17T07:23:27.561Z,7.72
2022-11-17T07:24:29.004Z,7.68
2022-11-17T07:25:30.481Z,7.72
2022-11-17T07:26:31.929Z,7.67
2022-11-17T07:27:33.839Z,7.67
2022-11-17T07:28:35.989Z,7.63
2022-11-17T07:29:37.609Z,7.66
2022-11-17T07:30:39.115Z,7.48
2022-11-17T07:31:40.564Z,7.50
2022-11-17T07:32:42.476Z,7.54
2022-11-17T07:33:43.934Z,7.57
2022-11-17T07:34:45.391Z,7.58
2022-11-17T07:35:47.447Z,7.57
2022-11-17T07:36:48.886Z,7.58
2022-11-17T07:37:50.338Z,7.59
2022-11-17T07:38:51.864Z,7.62
2022-11-17T07:39:53.310Z,7.67
2022-11-17T07:40:58.082Z,7.68
2022-11-17T07:41:59.879Z,7.57
2022-11-17T07:43:01.426Z,7.63
2022-11-17T07:44:02.889Z,7.67
2022-11-17T07:45:04.504Z,7.61
2022-11-17T07:46:07.507Z,7.57
2022-11-17T07:47:09.267Z,7.61
2022-11-17T07:48:10.759Z,7.64
2022-11-17T07:49:12.599Z,7.60
2022-11-17T07:50:15.794Z,7.64
2022-11-17T07:51:17.447Z,7.65
2022-11-17T07:52:19.426Z,7.63
2022-11-17T07:53:20.874Z,7.53
2022-11-17T07:54:22.314Z,7.58
2022-11-17T07:55:25.146Z,7.65
2022-11-17T07:56:26.580Z,7.73
2022-11-17T07:57:29.235Z,7.68
2022-11-17T07:58:30.920Z,7.61
2022-11-17T07:59:32.331Z,7.59
2022-11-17T08:00:33.864Z,7.63
2022-11-17T08:01:35.803Z,7.59
2022-11-17T08:02:37.933Z,7.49
2022-11-17T08:03:39.410Z,7.56
2022-11-17T08:04:40.865Z,7.54
2022-11-17T08:05:43.843Z,7.57
2022-11-17T08:06:45.703Z,7.50
2022-11-17T08:07:58.009Z,7.53
2022-11-17T08:08:59.428Z,7.49
2022-11-17T08:10:01.066Z,7.47
2022-11-17T08:11:04.641Z,7.49
2022-11-17T08:12:06.353Z,7.52
2022-11-17T08:13:08.352Z,7.51
2022-11-17T08:14:09.798Z,7.54
2022-11-17T08:15:11.374Z,7.66
2022-11-17T08:16:13.434Z,7.73
2022-11-17T08:17:15.190Z,7.79
2022-11-17T08:18:17.086Z,7.83
2022-11-17T08:19:18.516Z,7.89
2022-11-17T08:20:20.269Z,7.87
2022-11-17T08:21:21.757Z,7.92
2022-11-17T08:22:23.893Z,7.92
2022-11-17T08:23:25.317Z,7.73
2022-11-17T08:24:26.748Z,7.73
2022-11-17T08:25:28.260Z,7.80
2022-11-17T08:26:29.664Z,7.80
2022-11-17T08:27:31.404Z,7.79
2022-11-17T08:28:34.175Z,7.69
2022-11-17T08:29:35.939Z,7.68
2022-11-17T08:30:37.347Z,7.75
2022-11-17T08:31:38.880Z,7.73
2022-11-17T08:32:48.029Z,7.72
2022-11-17T08:33:49.487Z,7.80
2022-11-17T08:34:50.795Z,7.82
2022-11-17T08:35:52.243Z,7.89
2022-11-17T08:36:53.647Z,7.86
2022-11-17T08:37:55.667Z,7.82
2022-11-17T08:38:57.070Z,7.83
2022-11-17T08:39:58.518Z,7.92
2022-11-17T08:41:03.543Z,8.00
2022-11-17T08:42:04.984Z,8.00
2022-11-17T08:43:06.749Z,8.05
2022-11-17T08:44:08.387Z,8.08
2022-11-17T08:45:10.609Z,8.11
2022-11-17T08:46:13.169Z,8.07
2022-11-17T08:47:14.607Z,8.08
2022-11-17T08:48:16.447Z,8.16
2022-11-17T08:49:17.900Z,8.19
2022-11-17T08:50:20.888Z,8.21
2022-11-17T08:51:22.212Z,8.25
2022-11-17T08:52:23.767Z,8.27
2022-11-17T08:53:25.750Z,8.31
2022-11-17T08:54:27.222Z,8.38
2022-11-17T08:55:28.742Z,8.42
2022-11-17T08:56:30.258Z,8.45
2022-11-17T08:57:32.515Z,8.51
2022-11-17T08:58:45.059Z,8.51
2022-11-17T08:59:47.654Z,8.55
2022-11-17T09:00:49.195Z,8.58
2022-11-17T09:01:50.648Z,8.60
2022-11-17T09:02:52.150Z,8.63
2022-11-17T09:03:53.954Z,8.65
2022-11-17T09:04:55.820Z,8.65
2022-11-17T09:05:57.399Z,8.67
2022-11-17T09:06:58.895Z,8.65
2022-11-17T09:08:22.414Z,8.59
2022-11-17T09:09:22.115Z,8.45
2022-11-17T09:10:23.626Z,8.51
2022-11-17T09:11:25.156Z,8.39
2022-11-17T09:12:26.760Z,8.41
2022-11-17T09:13:28.504Z,8.42
2022-11-17T09:14:31.496Z,8.52
2022-11-17T09:15:33.205Z,8.53
2022-11-17T09:16:35.527Z,8.57
2022-11-17T09:17:36.949Z,8.62
2022-11-17T09:18:40.015Z,8.69
2022-11-17T09:19:41.795Z,8.69
2022-11-17T09:20:45.810Z,8.70
2022-11-17T09:21:47.541Z,8.71
2022-11-17T09:22:49.072Z,8.70
2022-11-17T09:23:50.538Z,8.68
2022-11-17T09:24:52.060Z,8.69
2022-11-17T09:25:53.487Z,8.74
2022-11-17T09:26:57.284Z,8.71
2022-11-17T09:27:58.763Z,8.77
2022-11-17T09:29:04.051Z,8.84
2022-11-17T09:30:07.766Z,8.91
2022-11-17T09:31:11.962Z,8.96
2022-11-17T09:32:13.517Z,8.97
2022-11-17T09:33:15.025Z,9.01
2022-11-17T09:34:17.350Z,9.04
2022-11-17T09:35:19.850Z,9.07
2022-11-17T09:36:21.675Z,9.10
2022-11-17T09:37:23.160Z,9.06
2022-11-17T09:38:25.353Z,8.88
2022-11-17T09:39:27.143Z,8.85
2022-11-17T09:40:33.196Z,8.82
2022-11-17T09:41:41.191Z,8.87
2022-11-17T09:42:42.732Z,8.81
2022-11-17T09:44:05.370Z,8.86
2022-11-17T09:45:23.211Z,8.92
2022-11-17T09:46:44.227Z,8.95
2022-11-17T09:48:18.441Z,9.00
2022-11-17T09:49:36.287Z,9.06
2022-11-17T09:50:40.300Z,9.08
2022-11-17T09:51:46.136Z,9.09
2022-11-17T09:53:05.132Z,9.12
2022-11-17T09:54:26.632Z,9.14
2022-11-17T09:55:34.945Z,9.08
2022-11-17T09:56:36.753Z,9.03
2022-11-17T09:57:42.957Z,8.97
2022-11-17T09:58:57.519Z,8.93
2022-11-17T10:00:08.240Z,8.90
2022-11-17T10:01:18.868Z,8.89
2022-11-17T10:02:20.433Z,8.98
2022-11-17T10:03:31.063Z,9.06
2022-11-17T10:04:32.457Z,9.13
2022-11-17T10:05:35.069Z,9.20
2022-11-17T10:06:37.723Z,9.23
2022-11-17T10:07:45.952Z,9.29
2022-11-17T10:08:47.744Z,9.35
2022-11-17T10:09:52.186Z,9.33
2022-11-17T10:10:53.783Z,9.36
2022-11-17T10:12:07.520Z,9.35
2022-11-17T10:13:21.955Z,9.40
2022-11-17T10:14:23.713Z,9.41
2022-11-17T10:15:33.444Z,9.41
2022-11-17T10:16:36.376Z,9.38
2022-11-17T10:17:39.379Z,9.36
2022-11-17T10:18:41.161Z,9.33
2022-11-17T10:19:45.195Z,9.34
2022-11-17T10:20:46.913Z,9.30
2022-11-17T10:22:10.743Z,9.32
2022-11-17T10:23:18.570Z,9.32
2022-11-17T10:24:36.897Z,9.05
2022-11-17T10:25:41.537Z,8.96
2022-11-17T10:26:48.093Z,9.07
2022-11-17T10:27:53.870Z,9.13
2022-11-17T10:29:11.510Z,9.18
2022-11-17T10:30:24.266Z,9.30
2022-11-17T10:31:25.785Z,9.36
2022-11-17T10:32:30.602Z,9.42
2022-11-17T10:33:40.782Z,9.51
2022-11-17T10:34:42.221Z,9.63
2022-11-17T10:35:56.242Z,9.49
2022-11-17T10:37:17.793Z,9.42
2022-11-17T10:38:20.930Z,9.43
2022-11-17T10:39:34.375Z,9.47
2022-11-17T10:40:38.853Z,9.52
2022-11-17T10:41:43.863Z,9.55
2022-11-17T10:42:58.526Z,9.42
2022-11-17T10:44:27.918Z,9.41
2022-11-17T10:45:29.814Z,9.36
2022-11-17T10:46:41.611Z,9.19
2022-11-17T10:47:46.638Z,9.13
2022-11-17T10:49:03.526Z,9.09
2022-11-17T10:50:18.996Z,9.01
2022-11-17T10:51:20.360Z,8.85
2022-11-17T10:52:23.513Z,8.82
2022-11-17T10:53:44.894Z,8.85
2022-11-17T10:54:49.772Z,8.84
2022-11-17T10:55:58.263Z,8.83
2022-11-17T10:57:01.988Z,8.84
2022-11-17T10:58:24.555Z,8.88
2022-11-17T10:59:57.076Z,8.90
2022-11-17T11:01:03.757Z,8.75
2022-11-17T11:02:26.903Z,8.74
2022-11-17T11:03:34.739Z,8.72
2022-11-17T11:04:41.594Z,8.76
2022-11-17T11:05:59.865Z,8.83
2022-11-17T11:07:19.419Z,8.85
2022-11-17T11:08:26.196Z,8.92
2022-11-17T11:09:29.515Z,8.90
2022-11-17T11:10:35.317Z,8.93
2022-11-17T11:11:53.708Z,9.03
2022-11-17T11:13:36.105Z,9.19
2022-11-17T11:14:53.646Z,9.22
2022-11-17T11:15:55.246Z,9.31
2022-11-17T11:16:57.228Z,9.37
2022-11-17T11:17:59.226Z,9.38
2022-11-17T11:19:00.722Z,9.42
2022-11-17T11:20:02.350Z,9.35
2022-11-17T11:21:14.261Z,9.33
2022-11-17T11:22:36.039Z,9.34
2022-11-17T11:23:49.293Z,9.37
2022-11-17T11:25:03.267Z,9.36
2022-11-17T11:26:31.170Z,9.24
2022-11-17T11:27:56.222Z,9.33
2022-11-17T11:29:33.771Z,9.22
2022-11-17T11:31:00.937Z,9.18
2022-11-17T11:32:11.592Z,9.26
2022-11-17T11:33:28.346Z,9.26
2022-11-17T11:34:56.890Z,9.27
2022-11-17T11:36:18.866Z,9.29
2022-11-17T11:37:29.192Z,9.30
2022-11-17T11:38:35.795Z,9.32
2022-11-17T11:39:59.168Z,9.43
2022-11-17T11:41:31.961Z,9.33
2022-11-17T11:42:48.717Z,9.40
2022-11-17T11:44:03.192Z,9.54
2022-11-17T11:45:36.916Z,9.55
2022-11-17T11:46:58.973Z,9.58
2022-11-17T11:48:27.041Z,9.69
2022-11-17T11:49:38.278Z,9.61
2022-11-17T11:50:48.764Z,9.63
2022-11-17T11:51:52.537Z,9.74
2022-11-17T11:53:04.986Z,9.83
2022-11-17T11:54:16.225Z,9.88
2022-11-17T11:55:22.239Z,9.83
2022-11-17T11:56:40.916Z,9.72
2022-11-17T11:57:49.859Z,9.72
2022-11-17T11:58:58.836Z,9.79
2022-11-17T12:00:05.030Z,9.86
2022-11-17T12:01:09.728Z,9.91
2022-11-17T12:02:11.705Z,10.03
2022-11-17T12:03:53.234Z,10.15
2022-11-17T12:05:14.151Z,10.21
2022-11-17T12:06:41.218Z,10.18
2022-11-17T12:07:50.062Z,10.35
2022-11-17T12:09:12.574Z,10.42
2022-11-17T12:10:24.359Z,10.46
2022-11-17T12:11:44.782Z,10.50
2022-11-17T12:12:47.354Z,10.60
2022-11-17T12:13:54.174Z,10.65
2022-11-17T12:15:11.202Z,10.67
2022-11-17T12:16:40.638Z,10.72
2022-11-17T12:18:04.007Z,10.70
2022-11-17T12:19:44.419Z,10.71
2022-11-17T12:20:55.314Z,10.72
2022-11-17T12:21:56.869Z,10.70
2022-11-17T12:23:15.141Z,10.73
2022-11-17T12:24:32.586Z,10.62
2022-11-17T12:25:37.199Z,10.64
2022-11-17T12:26:38.801Z,10.71
2022-11-17T12:27:42.687Z,10.64
2022-11-17T12:28:44.264Z,10.75
2022-11-17T12:29:46.785Z,10.83
2022-11-17T12:30:52.793Z,10.88
2022-11-17T12:32:00.484Z,10.89
2022-11-17T12:33:04.826Z,10.80
2022-11-17T12:34:06.238Z,10.81
2022-11-17T12:35:25.019Z,10.80
2022-11-17T12:36:34.138Z,10.75
2022-11-17T12:37:36.254Z,10.71
2022-11-17T12:38:38.561Z,10.71
2022-11-17T12:40:08.639Z,10.77
2022-11-17T12:41:10.110Z,10.86
2022-11-17T12:42:12.103Z,10.87
2022-11-17T12:43:16.907Z,10.81
2022-11-17T12:44:39.191Z,10.94
2022-11-17T12:46:10.967Z,10.93
2022-11-17T12:47:29.910Z,11.01
2022-11-17T12:48:37.817Z,11.03
2022-11-17T12:49:55.440Z,10.97
2022-11-17T12:51:06.632Z,11.01
2022-11-17T12:52:18.249Z,10.99
2022-11-17T12:53:29.967Z,11.01
2022-11-17T12:54:40.596Z,11.06
2022-11-17T12:56:19.023Z,11.06
2022-11-17T12:57:28.416Z,11.04
2022-11-17T12:58:46.085Z,11.08
2022-11-17T13:00:09.388Z,11.12
2022-11-17T13:01:32.908Z,10.97
2022-11-17T13:02:57.534Z,10.90
2022-11-17T13:04:21.503Z,10.79
2022-11-17T13:05:28.310Z,10.57
2022-11-17T13:06:37.474Z,10.30
2022-11-17T13:07:39.070Z,10.30
2022-11-17T13:08:41.288Z,10.33
2022-11-17T13:09:42.730Z,10.31
2022-11-17T13:10:45.001Z,10.32
2022-11-17T13:12:04.083Z,10.34
2022-11-17T13:13:23.906Z,10.33
2022-11-17T13:14:25.807Z,10.30
2022-11-17T13:15:27.352Z,10.29
2022-11-17T13:16:29.025Z,10.28
2022-11-17T13:17:39.088Z,10.23
2022-11-17T13:18:42.459Z,10.20
2022-11-17T13:19:44.475Z,10.16
2022-11-17T13:20:48.650Z,10.12
2022-11-17T13:21:58.282Z,10.10
2022-11-17T13:23:06.541Z,10.06
2022-11-17T13:24:08.890Z,10.03
2022-11-17T13:25:28.423Z,9.93
2022-11-17T13:26:37.443Z,9.95
2022-11-17T13:27:47.983Z,9.94
2022-11-17T13:29:19.262Z,9.95
2022-11-17T13:30:31.663Z,9.91
2022-11-17T13:31:33.862Z,9.91
2022-11-17T13:32:42.940Z,9.92
2022-11-17T13:33:54.385Z,9.92
2022-11-17T13:34:58.413Z,9.91
2022-11-17T13:36:09.017Z,9.94
2022-11-17T13:37:19.377Z,9.99
2022-11-17T13:38:22.943Z,10.09
2022-11-17T13:39:27.565Z,10.10
2022-11-17T13:40:31.353Z,10.15
2022-11-17T13:41:38.345Z,10.20
2022-11-17T13:42:40.117Z,10.21
2022-11-17T13:43:41.987Z,10.20
2022-11-17T13:44:43.465Z,10.22
2022-11-17T13:45:46.250Z,10.25
2022-11-17T13:46:47.706Z,10.28
2022-11-17T13:47:50.036Z,10.25
2022-11-17T13:48:52.462Z,10.30
2022-11-17T13:49:53.919Z,10.30
2022-11-17T13:50:55.540Z,10.24
2022-11-17T13:51:57.112Z,10.20
2022-11-17T13:53:02.570Z,10.23
2022-11-17T13:54:13.084Z,10.26
2022-11-17T13:55:19.919Z,10.29
2022-11-17T13:56:40.240Z,10.30
2022-11-17T13:57:55.053Z,10.29
2022-11-17T13:58:57.260Z,10.31
2022-11-17T14:00:01.083Z,10.32
2022-11-17T14:01:03.181Z,10.32
2022-11-17T14:02:17.334Z,10.33
2022-11-17T14:03:27.903Z,10.32
2022-11-17T14:04:29.413Z,10.33
2022-11-17T14:05:32.769Z,10.32
2022-11-17T14:06:52.673Z,10.23
2022-11-17T14:07:56.972Z,10.25
2022-11-17T14:09:04.111Z,10.28
2022-11-17T14:10:20.532Z,10.30
2022-11-17T14:11:23.052Z,10.31
2022-11-17T14:12:25.155Z,10.32
2022-11-17T14:13:31.236Z,10.34
2022-11-17T14:14:45.169Z,10.35
2022-11-17T14:15:56.692Z,10.32
2022-11-17T14:16:59.706Z,10.32
2022-11-17T14:18:03.059Z,10.36
2022-11-17T14:19:25.038Z,10.34
2022-11-17T14:20:33.593Z,10.35
2022-11-17T14:21:35.705Z,10.36
2022-11-17T14:22:37.290Z,10.35
2022-11-17T14:23:39.614Z,10.34
2022-11-17T14:24:41.647Z,10.35
2022-11-17T14:25:51.346Z,10.33
2022-11-17T14:26:52.910Z,10.35
2022-11-17T14:27:54.578Z,10.36
2022-11-17T14:29:02.037Z,10.37
2022-11-17T14:30:07.150Z,10.36
2022-11-17T14:31:13.518Z,10.37
2022-11-17T14:32:14.952Z,10.37
2022-11-17T14:33:18.220Z,10.33
2022-11-17T14:34:22.121Z,10.36
2022-11-17T14:35:23.704Z,10.37
2022-11-17T14:36:25.360Z,10.36
2022-11-17T14:37:29.266Z,10.38
2022-11-17T14:38:30.730Z,10.34
2022-11-17T14:39:32.669Z,10.30
2022-11-17T14:40:34.090Z,10.32
2022-11-17T14:41:35.619Z,10.32
2022-11-17T14:42:37.144Z,10.34
2022-11-17T14:43:38.676Z,10.31
2022-11-17T14:44:40.585Z,10.32